createdAt,value
2022-09-21T00:01:28.811Z,68.75
2022-09-21T00:04:00.150Z,68.87
2022-09-21T00:06:30.686Z,68.88
2022-09-21T00:08:58.468Z,68.94
2022-09-21T00:11:28.884Z,68.37
2022-09-21T00:14:04.468Z,68.30
2022-09-21T00:16:32.207Z,68.49
2022-09-21T00:19:00.653Z,68.37
2022-09-21T00:21:28.951Z,68.63
2022-09-21T00:23:56.082Z,68.89
2022-09-21T00:26:26.710Z,68.71
2022-09-21T00:28:56.208Z,68.94
2022-09-21T00:31:24.303Z,69.37
2022-09-21T00:33:51.841Z,69.65
2022-09-21T00:36:22.128Z,68.93
2022-09-21T00:38:58.980Z,69.34
2022-09-21T00:41:27.621Z,69.38
2022-09-21T00:44:25.493Z,69.24
2022-09-21T00:46:58.436Z,69.02
2022-09-21T00:49:27.342Z,69.21
2022-09-21T00:51:56.387Z,69.29
2022-09-21T00:54:33.494Z,69.23
2022-09-21T00:57:02.899Z,69.03
2022-09-21T00:59:32.786Z,69.09
2022-09-21T01:02:00.758Z,69.05
2022-09-21T01:04:28.416Z,69.08
2022-09-21T01:06:58.062Z,68.89
2022-09-21T01:09:25.926Z,69.08
2022-09-21T01:12:33.783Z,68.63
2022-09-21T01:15:21.670Z,68.65
2022-09-21T01:18:42.163Z,68.69
2022-09-21T01:21:23.793Z,69.13
2022-09-21T01:24:21.643Z,69.09
2022-09-21T01:27:13.408Z,68.87
2022-09-21T01:29:52.273Z,69.09
2022-09-21T01:32:40.954Z,68.98
2022-09-21T01:35:57.723Z,69.27
2022-09-21T01:38:35.638Z,69.07
2022-09-21T01:41:06.885Z,68.48
2022-09-21T01:43:46.342Z,69.29
2022-09-21T01:46:18.889Z,69.05
2022-09-21T01:48:50.751Z,69.20
2022-09-21T01:51:20.661Z,69.07
2022-09-21T01:54:05.416Z,68.96
2022-09-21T01:56:42.788Z,68.92
2022-09-21T01:59:30.944Z,69.12
2022-09-21T02:02:09.500Z,68.94
2022-09-21T02:04:37.394Z,69.13
2022-09-21T02:07:04.749Z,68.82
2022-09-21T02:09:34.059Z,68.80
2022-09-21T02:12:02.214Z,68.87
2022-09-21T02:14:30.086Z,68.48
2022-09-21T02:17:47.066Z,68.13
2022-09-21T02:20:36.533Z,68.39
2022-09-21T02:23:26.713Z,68.03
2022-09-21T02:26:03.625Z,68.12
2022-09-21T02:28:38.398Z,67.95
2022-09-21T02:31:34.519Z,68.08
2022-09-21T02:34:20.886Z,67.97
2022-09-21T02:37:06.996Z,67.25
2022-09-21T02:40:00.458Z,68.52
2022-09-21T02:42:37.783Z,68.20
2022-09-21T02:45:15.585Z,68.31
2022-09-21T02:48:09.560Z,68.40
2022-09-21T02:50:44.762Z,68.28
2022-09-21T02:53:17.250Z,68.25
2022-09-21T02:55:46.863Z,68.12
2022-09-21T02:58:16.742Z,67.77
2022-09-21T03:00:44.428Z,68.45
2022-09-21T03:03:23.390Z,68.36
2022-09-21T03:05:54.671Z,68.33
2022-09-21T03:08:22.402Z,68.00
2022-09-21T03:10:50.770Z,68.13
2022-09-21T03:13:19.019Z,68.08
2022-09-21T03:15:47.154Z,68.30
2022-09-21T03:18:14.142Z,68.34
2022-09-21T03:20:48.354Z,67.94
2022-09-21T03:23:15.457Z,68.12
2022-09-21T03:25:45.867Z,67.84
2022-09-21T03:28:14.422Z,67.93
2022-09-21T03:30:42.180Z,67.69
2022-09-21T03:33:10.019Z,67.39
2022-09-21T03:35:37.419Z,67.71
2022-09-21T03:38:04.398Z,67.76
2022-09-21T03:40:32.063Z,68.11
2022-09-21T03:42:59.240Z,67.90
2022-09-21T03:45:29.289Z,67.72
2022-09-21T03:48:01.854Z,67.65
2022-09-21T03:50:30.369Z,67.68
2022-09-21T03:52:57.649Z,67.46
2022-09-21T03:55:25.750Z,67.63
2022-09-21T03:57:53.594Z,67.46
2022-09-21T04:00:21.428Z,67.35
2022-09-21T04:02:49.951Z,67.38
2022-09-21T04:05:17.873Z,67.45
2022-09-21T04:07:48.373Z,67.38
2022-09-21T04:10:22.318Z,67.09
2022-09-21T04:12:49.205Z,67.06
2022-09-21T04:15:21.631Z,67.01
2022-09-21T04:17:52.128Z,67.15
2022-09-21T04:20:20.773Z,67.01
2022-09-21T04:22:47.885Z,67.10
2022-09-21T04:25:15.873Z,67.04
2022-09-21T04:27:43.203Z,67.25
2022-09-21T04:30:16.215Z,67.22
2022-09-21T04:32:43.955Z,67.54
2022-09-21T04:35:11.460Z,67.36
2022-09-21T04:37:38.732Z,67.46
2022-09-21T04:40:07.736Z,67.53
2022-09-21T04:42:35.362Z,67.48
2022-09-21T04:45:02.575Z,67.65
2022-09-21T04:47:31.502Z,67.44
2022-09-21T04:49:58.557Z,67.41
2022-09-21T04:52:25.890Z,67.87
2022-09-21T04:54:53.198Z,67.67
2022-09-21T04:57:20.570Z,67.46
2022-09-21T04:59:47.658Z,67.46
2022-09-21T05:02:14.671Z,67.72
2022-09-21T05:04:41.673Z,67.35
2022-09-21T05:07:08.773Z,67.51
2022-09-21T05:09:54.216Z,67.59
2022-09-21T05:12:21.198Z,68.13
2022-09-21T05:14:48.462Z,68.28
2022-09-21T05:17:15.464Z,68.21
2022-09-21T05:19:42.463Z,67.82
2022-09-21T05:22:09.500Z,68.14
2022-09-21T05:24:36.453Z,68.26
2022-09-21T05:27:03.670Z,68.45
2022-09-21T05:29:31.085Z,68.77
2022-09-21T05:32:32.104Z,68.47
2022-09-21T05:35:11.155Z,68.68
2022-09-21T05:37:57.703Z,68.77
2022-09-21T05:40:25.749Z,69.10
2022-09-21T05:42:53.143Z,68.90
2022-09-21T05:45:21.927Z,69.18
2022-09-21T05:48:16.570Z,68.83
2022-09-21T05:50:53.652Z,68.74
2022-09-21T05:53:51.244Z,68.78
2022-09-21T05:56:54.032Z,68.60
2022-09-21T05:59:47.020Z,68.33
2022-09-21T06:02:39.808Z,68.17
2022-09-21T06:05:12.493Z,68.12
2022-09-21T06:07:39.623Z,68.31
2022-09-21T06:10:08.059Z,67.91
2022-09-21T06:12:35.167Z,68.17
2022-09-21T06:15:02.397Z,67.83
2022-09-21T06:17:29.540Z,67.88
2022-09-21T06:19:56.643Z,67.84
2022-09-21T06:22:23.951Z,67.46
2022-09-21T06:24:50.915Z,67.92
2022-09-21T06:27:18.059Z,67.43
2022-09-21T06:29:46.469Z,67.36
2022-09-21T06:32:13.463Z,67.27
2022-09-21T06:34:40.447Z,67.47
2022-09-21T06:37:07.390Z,66.92
2022-09-21T06:39:34.424Z,67.08
2022-09-21T06:42:01.416Z,67.21
2022-09-21T06:44:30.005Z,67.02
2022-09-21T06:46:57.008Z,67.09
2022-09-21T06:49:24.141Z,66.86
2022-09-21T06:51:51.075Z,66.59
2022-09-21T06:54:18.554Z,66.73
2022-09-21T06:56:46.619Z,66.75
2022-09-21T06:59:13.855Z,66.86
2022-09-21T07:01:41.058Z,66.85
2022-09-21T07:04:09.366Z,66.44
2022-09-21T07:06:36.706Z,66.27
2022-09-21T07:11:51.029Z,65.90
2022-09-21T07:14:18.992Z,65.91
2022-09-21T07:16:46.479Z,65.98
2022-09-21T07:19:13.648Z,65.92
2022-09-21T07:21:40.825Z,66.11
2022-09-21T07:24:11.901Z,66.03
2022-09-21T07:26:40.062Z,65.81
2022-09-21T07:29:07.183Z,65.99
2022-09-21T07:31:34.351Z,65.97
2022-09-21T07:34:01.665Z,66.02
2022-09-21T07:36:28.681Z,66.14
2022-09-21T07:38:55.699Z,66.10
2022-09-21T07:41:23.459Z,65.88
2022-09-21T07:43:50.411Z,65.85
2022-09-21T07:46:17.420Z,65.60
2022-09-21T07:48:44.369Z,65.58
2022-09-21T07:51:14.693Z,65.64
2022-09-21T07:53:46.885Z,65.67
2022-09-21T07:56:16.857Z,65.61
2022-09-21T07:59:04.908Z,65.61
2022-09-21T08:01:38.958Z,65.63
2022-09-21T08:04:11.262Z,65.23
2022-09-21T08:06:42.210Z,64.68
2022-09-21T08:09:10.218Z,65.06
2022-09-21T08:11:37.687Z,65.32
2022-09-21T08:14:05.264Z,65.25
2022-09-21T08:16:33.997Z,65.38
2022-09-21T08:19:02.246Z,65.46
2022-09-21T08:21:30.668Z,65.52
2022-09-21T08:23:57.795Z,65.22
2022-09-21T08:26:24.840Z,65.17
2022-09-21T08:28:53.246Z,64.90
2022-09-21T08:31:22.391Z,64.45
2022-09-21T08:33:50.080Z,63.82
2022-09-21T08:36:18.494Z,64.10
2022-09-21T08:38:45.881Z,64.51
2022-09-21T08:41:20.118Z,64.91
2022-09-21T08:44:07.857Z,64.77
2022-09-21T08:46:37.238Z,64.62
2022-09-21T08:49:11.696Z,64.06
2022-09-21T08:51:50.037Z,63.23
2022-09-21T08:54:37.923Z,63.58
2022-09-21T08:57:06.251Z,63.25
2022-09-21T08:59:35.201Z,62.73
2022-09-21T09:02:47.863Z,63.89
2022-09-21T09:05:55.797Z,63.60
2022-09-21T09:08:44.757Z,63.99
2022-09-21T09:11:41.641Z,63.20
2022-09-21T09:15:15.968Z,62.21
2022-09-21T09:18:04.505Z,62.95
2022-09-21T09:20:41.658Z,62.14
2022-09-21T09:23:27.176Z,62.14
2022-09-21T09:26:03.852Z,62.92
2022-09-21T09:28:42.692Z,62.75
2022-09-21T09:31:23.530Z,62.96
2022-09-21T09:34:11.913Z,62.99
2022-09-21T09:37:00.542Z,62.19
2022-09-21T09:39:31.039Z,61.51
2022-09-21T09:42:28.445Z,60.76
2022-09-21T09:45:15.178Z,61.21
2022-09-21T09:48:13.425Z,61.80
2022-09-21T09:50:41.549Z,61.67
2022-09-21T09:53:25.435Z,61.48
2022-09-21T09:55:58.667Z,60.19
2022-09-21T09:58:57.549Z,60.15
2022-09-21T10:01:46.868Z,60.36
2022-09-21T10:04:20.176Z,59.35
2022-09-21T10:06:47.720Z,59.65
2022-09-21T10:09:32.443Z,59.32
2022-09-21T10:12:17.853Z,59.46
2022-09-21T10:14:54.744Z,60.05
2022-09-21T10:17:24.008Z,59.50
2022-09-21T10:20:04.153Z,59.49
2022-09-21T10:22:31.256Z,59.40
2022-09-21T10:25:06.036Z,58.84
2022-09-21T10:27:37.178Z,59.96
2022-09-21T10:30:04.849Z,60.16
2022-09-21T10:32:32.318Z,59.80
2022-09-21T10:35:07.669Z,58.46
2022-09-21T10:37:41.488Z,57.68
2022-09-21T10:40:20.746Z,57.53
2022-09-21T10:42:59.811Z,57.75
2022-09-21T10:45:37.195Z,58.28
2022-09-21T10:48:17.651Z,58.19
2022-09-21T10:50:51.120Z,57.60
2022-09-21T10:53:29.370Z,58.74
2022-09-21T10:56:16.624Z,58.82
2022-09-21T10:59:23.110Z,59.15
2022-09-21T11:01:54.006Z,59.19
2022-09-21T11:04:46.700Z,58.25
2022-09-21T11:07:16.515Z,58.17
2022-09-21T11:10:10.537Z,57.61
2022-09-21T11:12:57.740Z,57.22
2022-09-21T11:15:38.036Z,57.21
2022-09-21T11:18:15.040Z,56.60
2022-09-21T11:21:06.174Z,56.17
2022-09-21T11:24:02.740Z,57.02
2022-09-21T11:26:44.815Z,56.28
2022-09-21T11:29:28.052Z,56.66
2022-09-21T11:32:26.335Z,56.83
2022-09-21T11:35:45.261Z,56.03
2022-09-21T11:38:25.893Z,55.74
2022-09-21T11:41:18.573Z,55.84
2022-09-21T11:44:16.521Z,55.71
2022-09-21T11:47:02.996Z,55.44
2022-09-21T11:50:29.638Z,55.34
2022-09-21T11:53:29.088Z,54.42
2022-09-21T11:56:11.613Z,55.59
2022-09-21T11:59:33.116Z,56.22
2022-09-21T12:02:37.801Z,55.14
2022-09-21T12:05:45.924Z,55.21
2022-09-21T12:08:45.164Z,55.34
2022-09-21T12:11:24.391Z,55.36
2022-09-21T12:14:19.077Z,53.67
2022-09-21T12:17:21.240Z,53.96
2022-09-21T12:20:24.897Z,54.40
2022-09-21T12:23:11.240Z,55.48
2022-09-21T12:25:45.729Z,55.31
2022-09-21T12:28:34.894Z,54.73
2022-09-21T12:31:12.036Z,55.15
2022-09-21T12:34:01.324Z,55.21
2022-09-21T12:37:15.483Z,54.74
2022-09-21T12:40:08.043Z,55.28
2022-09-21T12:42:55.869Z,56.34
2022-09-21T12:45:35.725Z,56.62
2022-09-21T12:48:29.448Z,56.27
2022-09-21T12:51:06.426Z,55.74
2022-09-21T12:53:40.397Z,54.24
2022-09-21T12:56:26.623Z,52.39
2022-09-21T12:59:05.634Z,51.94
2022-09-21T13:01:57.192Z,51.52
2022-09-21T13:05:18.587Z,52.23
2022-09-21T13:08:07.244Z,51.61
2022-09-21T13:10:44.585Z,52.24
2022-09-21T13:13:53.161Z,52.08
2022-09-21T13:16:32.826Z,51.60
2022-09-21T13:19:07.389Z,53.11
2022-09-21T13:21:34.519Z,54.82
2022-09-21T13:24:07.914Z,54.88
2022-09-21T13:27:06.683Z,54.81
2022-09-21T13:29:37.208Z,55.60
2022-09-21T13:32:14.286Z,54.38
2022-09-21T13:34:46.954Z,53.46
2022-09-21T13:37:20.003Z,52.58
2022-09-21T13:40:02.408Z,52.83
2022-09-21T13:42:32.955Z,51.60
2022-09-21T13:45:17.852Z,51.48
2022-09-21T13:47:51.303Z,49.70
2022-09-21T13:50:58.094Z,50.46
2022-09-21T13:53:33.834Z,49.22
2022-09-21T13:56:08.967Z,47.23
2022-09-21T13:58:53.698Z,47.27
2022-09-21T14:01:45.625Z,47.78
2022-09-21T14:04:25.901Z,47.16
2022-09-21T14:06:55.210Z,46.44
2022-09-21T14:09:31.533Z,44.91
2022-09-21T14:12:06.427Z,42.78
2022-09-21T14:14:39.885Z,43.00
2022-09-21T14:17:38.278Z,44.52
2022-09-21T14:20:37.140Z,43.40
2022-09-21T14:23:29.149Z,43.08
2022-09-21T14:25:58.656Z,40.82
2022-09-21T14:28:36.377Z,40.83
2022-09-21T14:31:16.496Z,38.24
2022-09-21T14:33:49.317Z,37.84
2022-09-21T14:36:23.635Z,36.57
2022-09-21T14:39:00.450Z,38.07
2022-09-21T14:41:41.243Z,37.77
2022-09-21T14:44:18.828Z,38.23
2022-09-21T14:47:05.970Z,38.42
2022-09-21T14:49:42.096Z,38.72
2022-09-21T14:52:49.575Z,39.48
2022-09-21T14:55:55.170Z,39.72
2022-09-21T14:59:16.471Z,40.48
2022-09-21T15:02:24.021Z,41.31
2022-09-21T15:05:25.079Z,42.04
2022-09-21T15:08:48.085Z,42.29
2022-09-21T15:11:29.228Z,43.01
2022-09-21T15:14:23.884Z,43.49
2022-09-21T15:16:52.546Z,43.63
2022-09-21T15:19:23.702Z,44.00
2022-09-21T15:22:17.941Z,44.10
2022-09-21T15:24:55.541Z,44.22
2022-09-21T15:27:33.494Z,45.13
2022-09-21T15:30:05.304Z,44.96
2022-09-21T15:32:44.720Z,45.30
2022-09-21T15:35:20.420Z,46.18
2022-09-21T15:37:48.173Z,46.42
2022-09-21T15:40:31.998Z,46.82
2022-09-21T15:43:16.855Z,47.20
2022-09-21T15:46:03.036Z,47.43
2022-09-21T15:48:34.985Z,47.68
2022-09-21T15:51:16.946Z,47.94
2022-09-21T15:53:53.313Z,47.76
2022-09-21T15:56:29.568Z,48.39
2022-09-21T15:59:11.789Z,48.67
2022-09-21T16:01:47.670Z,49.15
2022-09-21T16:04:27.280Z,49.06
2022-09-21T16:07:30.328Z,50.11
2022-09-21T16:09:57.908Z,50.16
2022-09-21T16:12:43.617Z,50.64
2022-09-21T16:15:31.955Z,50.52
2022-09-21T16:18:01.957Z,50.75
2022-09-21T16:20:44.469Z,50.42
2022-09-21T16:23:23.290Z,50.57
2022-09-21T16:25:58.518Z,50.49
2022-09-21T16:28:41.423Z,50.81
2022-09-21T16:31:30.210Z,50.52
2022-09-21T16:34:24.803Z,50.64
2022-09-21T16:36:53.970Z,50.50
2022-09-21T16:39:21.770Z,50.23
2022-09-21T16:42:02.106Z,50.52
2022-09-21T16:44:34.669Z,50.98
2022-09-21T16:47:04.076Z,50.76
2022-09-21T16:49:34.896Z,51.14
2022-09-21T16:52:02.685Z,52.04
2022-09-21T16:54:30.742Z,52.82
2022-09-21T16:57:00.920Z,52.75
2022-09-21T16:59:28.761Z,53.93
2022-09-21T17:01:58.284Z,53.39
2022-09-21T17:04:31.729Z,53.49
2022-09-21T17:06:59.151Z,53.51
2022-09-21T17:09:33.969Z,53.44
2022-09-21T17:12:02.987Z,54.13
2022-09-21T17:14:40.898Z,54.09
2022-09-21T17:17:24.991Z,54.63
2022-09-21T17:19:53.897Z,54.77
2022-09-21T17:22:21.853Z,54.77
2022-09-21T17:24:52.310Z,54.68
2022-09-21T17:27:26.627Z,55.38
2022-09-21T17:29:55.416Z,55.68
2022-09-21T17:32:24.603Z,55.32
2022-09-21T17:35:13.799Z,55.00
2022-09-21T17:37:40.826Z,55.23
2022-09-21T17:40:11.151Z,54.91
2022-09-21T17:42:48.730Z,55.24
2022-09-21T17:45:50.476Z,55.68
2022-09-21T17:48:22.528Z,55.11
2022-09-21T17:50:50.498Z,55.25
2022-09-21T17:53:36.497Z,55.41
2022-09-21T17:56:22.129Z,55.85
2022-09-21T17:58:58.257Z,55.66
2022-09-21T18:01:38.866Z,55.16
2022-09-21T18:04:08.256Z,55.65
2022-09-21T18:06:35.672Z,55.77
2022-09-21T18:09:03.699Z,55.67
2022-09-21T18:11:45.253Z,55.61
2022-09-21T18:15:03.820Z,55.52
2022-09-21T18:18:03.390Z,55.71
2022-09-21T18:20:54.359Z,56.07
2022-09-21T18:23:48.420Z,55.76
2022-09-21T18:26:17.006Z,56.47
2022-09-21T18:28:57.371Z,56.80
2022-09-21T18:31:52.625Z,56.54
2022-09-21T18:34:20.155Z,56.68
2022-09-21T18:37:12.676Z,56.61
2022-09-21T18:40:21.809Z,56.17
2022-09-21T18:43:30.649Z,56.59
2022-09-21T18:46:06.507Z,56.42
2022-09-21T18:48:50.979Z,57.32
2022-09-21T18:52:01.413Z,57.66
2022-09-21T18:54:28.852Z,57.49
2022-09-21T18:56:56.445Z,58.35
2022-09-21T18:59:25.713Z,59.41
2022-09-21T19:01:55.744Z,59.50
2022-09-21T19:04:23.106Z,60.10
2022-09-21T19:07:28.415Z,58.99
2022-09-21T19:10:11.248Z,59.24
2022-09-21T19:12:47.581Z,59.01
2022-09-21T19:15:18.072Z,59.10
2022-09-21T19:18:26.865Z,59.42
2022-09-21T19:21:40.624Z,60.06
2022-09-21T19:24:39.211Z,60.33
2022-09-21T19:27:40.036Z,60.27
2022-09-21T19:30:14.260Z,59.45
2022-09-21T19:32:47.076Z,59.16
2022-09-21T19:35:17.091Z,58.99
2022-09-21T19:37:44.519Z,59.73
2022-09-21T19:40:12.678Z,60.38
2022-09-21T19:43:10.941Z,60.05
2022-09-21T19:46:05.557Z,60.35
2022-09-21T19:48:43.114Z,59.80
2022-09-21T19:51:38.551Z,59.40
2022-09-21T19:54:35.452Z,59.38
2022-09-21T19:57:31.701Z,59.22
2022-09-21T20:00:00.075Z,59.43
2022-09-21T20:02:32.573Z,59.39
2022-09-21T20:05:23.703Z,59.42
2022-09-21T20:08:04.564Z,59.25
2022-09-21T20:10:54.984Z,59.18
2022-09-21T20:13:31.115Z,59.13
2022-09-21T20:16:26.173Z,59.10
2022-09-21T20:19:23.490Z,59.31
2022-09-21T20:22:00.400Z,59.85
2022-09-21T20:24:52.099Z,61.18
2022-09-21T20:27:29.914Z,61.70
2022-09-21T20:29:56.948Z,63.07
2022-09-21T20:32:24.319Z,62.18
2022-09-21T20:34:51.678Z,62.81
2022-09-21T20:37:19.267Z,61.94
2022-09-21T20:39:46.544Z,63.20
2022-09-21T20:42:24.806Z,62.20
2022-09-21T20:44:52.593Z,61.71
2022-09-21T20:47:20.528Z,62.99
2022-09-21T20:49:48.496Z,62.44
2022-09-21T20:52:16.918Z,61.75
2022-09-21T20:54:49.105Z,61.75
2022-09-21T20:57:18.539Z,62.22
2022-09-21T20:59:45.583Z,63.41
2022-09-21T21:02:14.359Z,62.48
2022-09-21T21:04:41.484Z,62.14
2022-09-21T21:07:08.961Z,61.15
2022-09-21T21:09:37.396Z,60.94
2022-09-21T21:12:04.950Z,60.55
2022-09-21T21:14:31.832Z,60.59
2022-09-21T21:16:58.923Z,62.10
2022-09-21T21:19:26.232Z,61.62
2022-09-21T21:21:53.281Z,62.16
2022-09-21T21:24:38.551Z,62.35
2022-09-21T21:27:06.074Z,63.08
2022-09-21T21:29:33.568Z,62.50
2022-09-21T21:32:01.044Z,62.67
2022-09-21T21:34:28.305Z,62.96
2022-09-21T21:36:55.905Z,64.05
2022-09-21T21:39:23.017Z,64.74
2022-09-21T21:41:49.924Z,64.87
2022-09-21T21:44:16.823Z,66.17
2022-09-21T21:46:44.004Z,65.49
2022-09-21T21:49:11.352Z,65.64
2022-09-21T21:51:38.309Z,66.12
2022-09-21T21:54:05.739Z,65.85
2022-09-21T21:56:32.816Z,66.11
2022-09-21T21:59:00.171Z,66.34
2022-09-21T22:01:29.927Z,66.19
2022-09-21T22:04:00.336Z,65.28
2022-09-21T22:06:30.107Z,65.40
2022-09-21T22:08:57.880Z,64.82
2022-09-21T22:11:27.108Z,64.84
2022-09-21T22:13:55.305Z,64.63
2022-09-21T22:16:25.457Z,65.13
2022-09-21T22:18:53.567Z,64.42
2022-09-21T22:21:22.868Z,64.55
2022-09-21T22:23:54.404Z,64.67
2022-09-21T22:26:22.575Z,64.67
2022-09-21T22:28:54.461Z,64.96
2022-09-21T22:31:26.610Z,65.00
2022-09-21T22:33:55.646Z,65.59
2022-09-21T22:36:29.341Z,64.94
2022-09-21T22:38:57.489Z,64.99
2022-09-21T22:41:28.819Z,64.73
2022-09-21T22:43:58.149Z,64.92
2022-09-21T22:46:27.019Z,65.03
2022-09-21T22:48:53.979Z,65.05
2022-09-21T22:51:22.015Z,65.14
2022-09-21T22:53:50.681Z,65.40
2022-09-21T22:56:21.473Z,65.78
2022-09-21T22:58:52.388Z,65.70
2022-09-21T23:01:35.633Z,65.34
2022-09-21T23:04:07.378Z,65.34
2022-09-21T23:06:37.987Z,65.22
2022-09-21T23:09:12.060Z,64.80
2022-09-21T23:11:43.379Z,64.75
2022-09-21T23:14:12.325Z,65.03
2022-09-21T23:16:39.341Z,65.23
2022-09-21T23:19:07.217Z,64.22
2022-09-21T23:21:34.104Z,64.42
2022-09-21T23:24:02.809Z,64.61
2022-09-21T23:26:32.194Z,65.16
2022-09-21T23:29:08.891Z,65.59
2022-09-21T23:31:36.037Z,65.98
2022-09-21T23:34:12.556Z,66.22
2022-09-21T23:36:41.065Z,66.37
2022-09-21T23:39:11.669Z,66.13
2022-09-21T23:41:39.275Z,66.50
2022-09-21T23:44:06.411Z,66.38
2022-09-21T23:46:36.646Z,66.15
2022-09-21T23:49:04.114Z,66.00
2022-09-21T23:51:31.332Z,65.90
2022-09-21T23:54:00.131Z,65.61
2022-09-21T23:56:28.504Z,65.35
2022-09-21T23:58:56.140Z,65.15
